Munnerlyn, Georgia
Current Conditions -  °F | °C
As of 9:53 AM on Wednesday 22 Oct 2014 (Local Time) from KAGS Reporting Station
Clear Clear  
Wind Chill: 58°   Ceiling: Unl
Heat Index: 58°   Visibility: 10mi
Dew Point: 41°   Wind: 7mph
Humidity: 53%   Direction: 10°N
Pressure: 30.1"   Gusts: NA
Location:  33.0894°N, 81.978°W
Report Text: KAGS 221353Z 01006KT 10SM CLR 14/05 A3010 RMK AO2 SLP190 T01440050
Loading
Personal Weather Stations






























Interactive Weather Map
Tropical Storm Tracking
New forecast layout! Learn more

10-Day Weather Forecast

Advertisements
Track Severe Weather on mobile